Time;durP1;ratioP1;P1;durP2;ratioP2;P2;SDS_P1;SDS_P2;PMS_P1;PMS_P2;Temp;Humidity;BMP_temperature;BMP_pressure;BME280_temperature;BME280_humidity;BME280_pressure;Samples;Min_cycle;Max_cycle;Signal;HPM_P1;HPM_P2
2022/08/27 00:00:14;;;;;;;5.60;2.15;;;16.10;99.90;;;;;;5052960;28;36786;-76
2022/08/27 00:02:42;;;;;;;4.22;1.70;;;16.10;99.90;;;;;;5076449;28;36640;-76
2022/08/27 00:05:09;;;;;;;7.13;1.80;;;16.00;99.90;;;;;;5073436;27;38470;-76
2022/08/27 00:07:36;;;;;;;3.35;1.90;;;16.00;99.90;;;;;;5058065;28;38255;-76
2022/08/27 00:10:06;;;;;;;4.03;1.88;;;15.90;99.90;;;;;;5070987;28;38290;-76
2022/08/27 00:12:33;;;;;;;7.13;2.33;;;15.90;99.90;;;;;;5061085;28;36418;-77
2022/08/27 00:14:59;;;;;;;6.00;1.90;;;15.90;99.90;;;;;;5064778;28;38912;-75
2022/08/27 00:17:25;;;;;;;5.90;2.08;;;15.80;99.90;;;;;;5067939;28;37077;-76
2022/08/27 00:19:51;;;;;;;5.07;1.90;;;15.80;99.90;;;;;;5051527;28;37913;-77
2022/08/27 00:22:18;;;;;;;5.00;2.15;;;15.70;99.90;;;;;;5058810;28;36132;-77
2022/08/27 00:24:44;;;;;;;5.05;2.40;;;15.70;99.90;;;;;;5038202;28;40473;-77
2022/08/27 00:27:10;;;;;;;4.57;1.80;;;15.60;99.90;;;;;;5039816;28;38545;-77
2022/08/27 00:29:36;;;;;;;5.30;2.08;;;15.60;99.90;;;;;;5055661;28;37564;-77
2022/08/27 00:32:03;;;;;;;5.13;2.03;;;15.50;99.90;;;;;;5058154;28;37915;-77
2022/08/27 00:34:30;;;;;;;4.68;2.05;;;15.50;99.90;;;;;;5064088;28;38569;-76
2022/08/27 00:36:56;;;;;;;3.92;1.98;;;15.50;99.90;;;;;;5047750;28;39640;-77
2022/08/27 00:39:22;;;;;;;5.43;2.22;;;15.40;99.90;;;;;;5059041;28;37855;-76
2022/08/27 00:41:49;;;;;;;5.60;2.33;;;15.40;99.90;;;;;;5042917;28;36840;-76
2022/08/27 00:44:15;;;;;;;6.65;2.15;;;15.40;99.90;;;;;;5057445;28;39775;-77
2022/08/27 00:46:45;;;;;;;4.68;2.13;;;15.40;99.90;;;;;;5053302;28;39359;-76
2022/08/27 00:49:17;;;;;;;4.32;1.95;;;15.40;99.90;;;;;;5041183;28;39630;-76
2022/08/27 00:51:49;;;;;;;3.78;1.90;;;15.30;99.90;;;;;;5054832;28;35948;-76
2022/08/27 00:54:16;;;;;;;4.53;2.20;;;15.30;99.90;;;;;;5055641;28;38903;-77
2022/08/27 00:56:43;;;;;;;4.95;1.98;;;15.20;99.90;;;;;;5039890;28;37613;-76
2022/08/27 00:59:13;;;;;;;6.53;2.08;;;15.10;99.90;;;;;;5055323;28;39251;-77
2022/08/27 01:02:17;;;;;;;3.45;2.13;;;15.10;99.90;;;;;;5054090;28;37437;-77
2022/08/27 01:04:27;;;;;;;5.15;2.33;;;15.10;99.90;;;;;;5079571;28;47730;-77
2022/08/27 01:06:54;;;;;;;4.53;2.33;;;15.10;99.90;;;;;;5074678;28;39132;-77
2022/08/27 01:09:21;;;;;;;6.38;2.28;;;15.00;99.90;;;;;;5058471;28;38821;-77
2022/08/27 01:11:48;;;;;;;3.40;1.95;;;15.00;99.90;;;;;;5076603;28;37446;-77
2022/08/27 01:14:16;;;;;;;6.00;2.33;;;15.00;99.90;;;;;;5076676;27;39512;-77
2022/08/27 01:16:49;;;;;;;3.58;2.20;;;14.90;99.90;;;;;;5079148;28;38441;-77
2022/08/27 01:19:31;;;;;;;4.05;2.22;;;14.90;99.90;;;;;;5077268;28;38800;-77
2022/08/27 01:22:23;;;;;;;3.60;2.05;;;14.80;99.90;;;;;;5057657;28;37612;-76
2022/08/27 01:24:53;;;;;;;4.60;2.47;;;14.80;99.90;;;;;;5080296;28;48810;-77
2022/08/27 01:27:23;;;;;;;4.95;2.03;;;14.80;99.90;;;;;;5074396;28;39114;-77
2022/08/27 01:29:50;;;;;;;7.72;2.40;;;14.80;99.90;;;;;;5058419;28;38921;-76
2022/08/27 01:32:20;;;;;;;4.00;2.40;;;14.80;99.90;;;;;;5054850;28;37704;-76
2022/08/27 01:34:46;;;;;;;5.45;2.25;;;14.80;99.90;;;;;;5063928;28;39193;-77
2022/08/27 01:37:14;;;;;;;4.90;2.15;;;14.70;99.90;;;;;;5073609;28;39372;-77
2022/08/27 01:39:41;;;;;;;3.70;2.20;;;14.80;99.90;;;;;;5080326;28;37731;-77
2022/08/27 01:42:24;;;;;;;5.53;2.05;;;14.70;99.90;;;;;;5077249;27;37698;-76
2022/08/27 01:44:57;;;;;;;6.18;2.00;;;14.70;99.90;;;;;;5066111;28;40284;-77
2022/08/27 01:47:26;;;;;;;4.10;2.28;;;14.70;99.90;;;;;;5066986;27;39695;-77
2022/08/27 01:49:52;;;;;;;6.57;2.40;;;14.70;99.90;;;;;;5082670;28;38704;-77
2022/08/27 01:52:21;;;;;;;3.28;2.03;;;14.70;99.90;;;;;;5057864;27;39239;-77
2022/08/27 01:54:50;;;;;;;3.05;1.90;;;14.70;99.90;;;;;;5078155;28;39360;-77
2022/08/27 01:57:18;;;;;;;6.22;2.20;;;14.60;99.90;;;;;;5076936;27;39061;-77
2022/08/27 01:59:44;;;;;;;3.40;2.05;;;14.60;99.90;;;;;;5057898;28;38804;-77
2022/08/27 02:02:13;;;;;;;4.68;2.00;;;14.60;99.90;;;;;;5051605;28;38606;-76
2022/08/27 02:04:40;;;;;;;6.40;2.30;;;14.50;99.90;;;;;;5040352;28;39134;-77
2022/08/27 02:07:06;;;;;;;5.72;2.10;;;14.50;99.90;;;;;;5077170;27;38530;-76
2022/08/27 02:09:32;;;;;;;4.72;2.15;;;14.50;99.90;;;;;;5078950;28;38926;-76
2022/08/27 02:11:59;;;;;;;4.10;2.38;;;14.50;99.90;;;;;;5071577;28;37976;-76
2022/08/27 02:14:26;;;;;;;3.97;1.90;;;14.40;99.90;;;;;;5073136;27;38444;-77
2022/08/27 02:16:52;;;;;;;5.03;1.95;;;14.40;99.90;;;;;;5043545;28;38280;-77
2022/08/27 02:19:19;;;;;;;3.20;1.83;;;14.40;99.90;;;;;;5056859;27;38084;-77
2022/08/27 02:21:45;;;;;;;4.10;1.83;;;14.40;99.90;;;;;;5056454;28;37454;-77
2022/08/27 02:24:11;;;;;;;5.47;2.40;;;14.30;99.90;;;;;;5039730;28;40375;-77
2022/08/27 02:26:38;;;;;;;4.63;2.30;;;14.30;99.90;;;;;;5043045;28;39015;-77
2022/08/27 02:29:04;;;;;;;4.28;2.13;;;14.30;99.90;;;;;;5063114;28;38779;-77
2022/08/27 02:31:30;;;;;;;5.90;2.10;;;14.30;99.90;;;;;;5057629;28;38613;-77
2022/08/27 02:33:56;;;;;;;7.15;2.13;;;14.30;99.90;;;;;;5071915;28;39750;-77
2022/08/27 02:36:23;;;;;;;7.20;2.17;;;14.30;99.90;;;;;;5082757;28;38510;-77
2022/08/27 02:38:50;;;;;;;5.38;2.17;;;14.30;99.90;;;;;;5060699;28;38695;-77
2022/08/27 02:41:16;;;;;;;4.65;2.05;;;14.20;99.90;;;;;;5078330;28;37937;-77
2022/08/27 02:43:44;;;;;;;5.13;2.03;;;14.20;99.90;;;;;;5082030;27;38732;-77
2022/08/27 02:46:11;;;;;;;3.47;1.77;;;14.30;99.90;;;;;;5076616;28;36517;-77
2022/08/27 02:48:38;;;;;;;3.83;2.17;;;14.20;99.90;;;;;;5065221;28;39040;-76
2022/08/27 02:51:05;;;;;;;3.05;1.80;;;14.20;99.90;;;;;;5063993;28;36367;-77
2022/08/27 02:53:32;;;;;;;5.50;2.30;;;14.20;99.90;;;;;;5058473;28;39544;-78
2022/08/27 02:55:58;;;;;;;4.47;2.08;;;14.20;99.90;;;;;;5074226;28;39076;-76
2022/08/27 02:58:25;;;;;;;5.07;1.98;;;14.20;99.90;;;;;;5073342;28;37806;-77
2022/08/27 03:00:51;;;;;;;3.85;2.00;;;14.20;99.90;;;;;;5076163;28;37094;-77
2022/08/27 03:03:17;;;;;;;7.40;2.95;;;14.20;99.90;;;;;;5074040;27;39858;-78
2022/08/27 03:05:43;;;;;;;5.10;2.35;;;14.20;99.90;;;;;;5058520;28;39263;-77
2022/08/27 03:08:10;;;;;;;3.90;2.30;;;14.10;99.90;;;;;;5077525;28;37846;-78
2022/08/27 03:10:36;;;;;;;3.90;1.83;;;14.20;99.90;;;;;;5079995;28;37164;-77
2022/08/27 03:13:02;;;;;;;4.65;2.22;;;14.20;99.90;;;;;;5067907;27;37597;-77
2022/08/27 03:15:29;;;;;;;5.00;2.00;;;14.20;99.90;;;;;;5053783;28;37484;-77
2022/08/27 03:20:42;;;;;;;3.55;1.83;;;14.10;99.90;;;;;;5077265;28;49229;-77
2022/08/27 03:23:09;;;;;;;3.58;2.05;;;14.10;99.90;;;;;;5055590;28;39799;-77
2022/08/27 03:25:36;;;;;;;4.60;2.42;;;14.00;99.90;;;;;;5062288;28;38606;-77
2022/08/27 03:28:03;;;;;;;4.25;1.98;;;14.00;99.90;;;;;;5076288;28;38057;-77
2022/08/27 03:30:29;;;;;;;4.00;2.22;;;14.00;99.90;;;;;;5078086;28;37316;-77
2022/08/27 03:32:55;;;;;;;4.72;2.10;;;14.00;99.90;;;;;;5060868;28;40018;-77
2022/08/27 03:35:22;;;;;;;6.22;2.03;;;14.00;99.90;;;;;;5076553;28;36769;-77
2022/08/27 03:37:49;;;;;;;4.15;2.00;;;14.00;99.90;;;;;;5041355;28;39291;-76
2022/08/27 03:40:16;;;;;;;3.10;1.90;;;14.00;99.90;;;;;;5062032;28;37216;-76
2022/08/27 03:42:42;;;;;;;3.97;2.35;;;14.00;99.90;;;;;;5053237;28;38663;-76
2022/08/27 03:45:09;;;;;;;5.13;2.28;;;14.00;99.90;;;;;;5050361;28;39106;-77
2022/08/27 03:47:36;;;;;;;5.57;2.38;;;14.00;99.90;;;;;;5040368;28;39675;-76
2022/08/27 03:50:04;;;;;;;4.32;2.00;;;13.90;99.90;;;;;;5057445;28;37333;-76
2022/08/27 03:52:33;;;;;;;4.43;2.00;;;13.90;99.90;;;;;;5035281;28;47271;-77
2022/08/27 03:55:00;;;;;;;4.95;2.03;;;13.90;99.90;;;;;;5060180;28;38512;-77
2022/08/27 03:57:26;;;;;;;5.00;2.28;;;13.80;99.90;;;;;;5054658;28;39410;-76
2022/08/27 03:59:52;;;;;;;3.92;2.10;;;13.80;99.90;;;;;;5052497;28;36975;-76
2022/08/27 04:02:18;;;;;;;4.65;2.47;;;13.90;99.90;;;;;;5052147;28;41886;-76
2022/08/27 04:04:44;;;;;;;5.85;2.13;;;13.90;99.90;;;;;;5039854;28;38859;-76
2022/08/27 04:07:10;;;;;;;4.68;2.17;;;13.80;99.90;;;;;;5038277;28;38267;-76
2022/08/27 04:09:36;;;;;;;4.55;2.00;;;13.80;99.90;;;;;;5057564;28;37236;-76
2022/08/27 04:12:03;;;;;;;6.43;2.25;;;13.80;99.90;;;;;;5037778;28;38683;-75
2022/08/27 04:14:29;;;;;;;6.95;2.45;;;13.80;99.90;;;;;;5058069;28;39159;-76
2022/08/27 04:16:56;;;;;;;3.55;2.00;;;13.70;99.90;;;;;;5061255;28;38620;-75
2022/08/27 04:19:23;;;;;;;4.18;1.88;;;13.70;99.90;;;;;;5042616;28;37846;-75
2022/08/27 04:21:49;;;;;;;3.55;1.95;;;13.70;99.90;;;;;;5038419;28;39615;-76
2022/08/27 04:24:15;;;;;;;3.78;1.60;;;13.70;99.90;;;;;;5043425;28;38439;-75
2022/08/27 04:26:44;;;;;;;5.07;3.20;;;13.70;99.90;;;;;;5053314;28;38113;-76
2022/08/27 04:29:10;;;;;;;3.45;1.98;;;13.70;99.90;;;;;;5060698;28;37279;-76
2022/08/27 04:31:36;;;;;;;5.22;2.40;;;13.70;99.90;;;;;;5041967;28;39914;-76
2022/08/27 04:34:05;;;;;;;5.20;2.28;;;13.70;99.90;;;;;;5039021;28;39298;-76
2022/08/27 04:36:31;;;;;;;4.10;2.17;;;13.70;99.90;;;;;;5056162;28;38217;-75
2022/08/27 04:38:57;;;;;;;4.65;2.30;;;13.70;99.90;;;;;;5060767;28;36982;-75
2022/08/27 04:41:26;;;;;;;4.72;2.22;;;13.60;99.90;;;;;;5058216;28;37333;-75
2022/08/27 04:43:55;;;;;;;3.67;2.00;;;13.60;99.90;;;;;;5060247;28;39154;-76
2022/08/27 04:46:29;;;;;;;4.32;2.05;;;13.60;99.90;;;;;;5055353;28;38855;-76
2022/08/27 04:48:57;;;;;;;4.97;2.38;;;13.60;99.90;;;;;;5047489;28;37960;-76
2022/08/27 04:51:23;;;;;;;5.18;2.08;;;13.60;99.90;;;;;;5042383;28;38880;-75
2022/08/27 04:53:50;;;;;;;4.35;2.25;;;13.60;99.90;;;;;;5060252;28;38306;-76
2022/08/27 04:56:20;;;;;;;2.38;1.77;;;13.60;99.90;;;;;;5059075;28;37540;-76
2022/08/27 04:58:46;;;;;;;4.82;2.03;;;13.60;99.90;;;;;;5053915;28;35928;-75
2022/08/27 05:01:17;;;;;;;4.72;2.00;;;13.60;99.90;;;;;;5038531;28;39371;-76
2022/08/27 05:03:43;;;;;;;3.03;2.20;;;13.60;99.90;;;;;;5055845;28;38255;-75
2022/08/27 05:06:11;;;;;;;3.20;2.10;;;13.70;99.90;;;;;;5033055;28;38435;-75
2022/08/27 05:08:38;;;;;;;6.05;2.15;;;13.70;99.90;;;;;;5056560;28;37217;-77
2022/08/27 05:11:11;;;;;;;4.05;2.20;;;13.80;99.90;;;;;;5056855;28;38547;-76
2022/08/27 05:13:38;;;;;;;4.32;2.13;;;13.80;99.90;;;;;;5058854;28;39822;-76
2022/08/27 05:16:08;;;;;;;2.58;2.05;;;13.90;99.90;;;;;;5057984;28;37205;-76
2022/08/27 05:18:35;;;;;;;4.75;1.98;;;13.90;99.90;;;;;;5052087;28;38896;-76
2022/08/27 05:21:02;;;;;;;5.25;1.83;;;14.00;99.90;;;;;;5037340;28;39120;-77
2022/08/27 05:23:28;;;;;;;4.35;2.00;;;14.10;99.90;;;;;;5060236;28;38632;-76
2022/08/27 05:25:56;;;;;;;4.47;1.92;;;14.20;99.90;;;;;;5054478;28;38080;-77
2022/08/27 05:28:24;;;;;;;3.70;2.05;;;14.30;99.90;;;;;;5037185;28;38092;-77
2022/08/27 05:30:52;;;;;;;3.60;1.98;;;14.40;99.90;;;;;;5038176;28;39469;-77
2022/08/27 05:33:22;;;;;;;6.43;2.33;;;14.60;99.90;;;;;;5060268;28;38197;-77
2022/08/27 05:35:56;;;;;;;3.13;1.80;;;14.70;99.90;;;;;;5059351;28;37745;-77
2022/08/27 05:38:27;;;;;;;2.47;2.20;;;14.80;99.90;;;;;;5055491;28;36982;-77
2022/08/27 05:41:09;;;;;;;4.00;1.88;;;14.80;99.90;;;;;;5041801;28;39664;-77
2022/08/27 05:43:37;;;;;;;4.15;1.77;;;14.80;99.90;;;;;;5063031;28;48630;-77
2022/08/27 05:46:09;;;;;;;4.80;2.40;;;14.80;99.90;;;;;;5036905;28;38944;-78
2022/08/27 05:48:36;;;;;;;4.63;2.08;;;14.80;99.90;;;;;;5040984;28;38761;-77
2022/08/27 05:51:12;;;;;;;7.30;2.42;;;14.80;99.90;;;;;;5039447;28;39360;-78
2022/08/27 05:53:39;;;;;;;7.97;3.83;;;14.80;99.90;;;;;;5040318;28;38950;-78
2022/08/27 05:56:14;;;;;;;7.90;3.67;;;14.80;99.90;;;;;;5039818;28;39903;-78
2022/08/27 06:01:26;;;;;;;5.95;2.85;;;14.80;99.90;;;;;;5055531;28;40381;-77
2022/08/27 06:03:53;;;;;;;4.88;2.75;;;15.00;99.90;;;;;;5042369;28;38676;-77
2022/08/27 06:06:21;;;;;;;4.78;2.70;;;15.00;99.90;;;;;;5052367;28;37678;-77
2022/08/27 06:08:49;;;;;;;7.20;3.00;;;15.10;99.90;;;;;;5036434;28;37849;-77
2022/08/27 06:11:20;;;;;;;5.13;2.75;;;15.20;99.90;;;;;;5053568;28;38313;-77
2022/08/27 06:13:46;;;;;;;2.67;2.30;;;15.20;99.90;;;;;;5061496;28;37929;-77
2022/08/27 06:16:15;;;;;;;4.80;2.35;;;15.40;99.90;;;;;;5038539;28;38181;-78
2022/08/27 06:18:46;;;;;;;11.65;3.45;;;15.50;99.90;;;;;;5038597;28;36272;-77
2022/08/27 06:21:15;;;;;;;;;;;15.70;99.90;;;;;;5059460;28;20060;-77
2022/08/27 06:23:41;;;;;;;5.00;3.00;;;15.80;99.90;;;;;;5042177;28;38534;-77
2022/08/27 06:26:19;;;;;;;3.58;2.47;;;15.90;99.90;;;;;;5056000;28;37955;-76
2022/08/27 06:28:45;;;;;;;5.05;2.28;;;16.10;99.90;;;;;;5051830;28;36732;-77
2022/08/27 06:31:15;;;;;;;7.07;2.95;;;16.30;99.90;;;;;;5053958;28;39062;-78
2022/08/27 06:33:43;;;;;;;7.75;3.03;;;16.40;99.90;;;;;;5061422;28;39802;-76
2022/08/27 06:36:12;;;;;;;7.45;2.92;;;16.50;99.90;;;;;;5060282;28;37790;-76
2022/08/27 06:38:39;;;;;;;5.10;2.38;;;16.50;99.90;;;;;;5045410;28;37910;-76
2022/08/27 06:41:06;;;;;;;4.40;1.92;;;16.60;99.90;;;;;;5036967;28;39259;-76
2022/08/27 06:43:37;;;;;;;6.55;2.20;;;16.70;99.90;;;;;;5039264;28;39240;-76
2022/08/27 06:46:06;;;;;;;5.93;2.08;;;16.70;99.90;;;;;;5037672;28;39501;-76
2022/08/27 06:48:32;;;;;;;4.03;2.17;;;16.70;99.90;;;;;;5058326;28;37809;-76
2022/08/27 06:50:59;;;;;;;4.15;2.28;;;16.80;99.90;;;;;;5033732;28;40522;-76
2022/08/27 06:53:25;;;;;;;10.23;2.53;;;16.80;99.90;;;;;;5040156;28;38480;-76
2022/08/27 06:55:51;;;;;;;4.10;1.92;;;16.80;99.90;;;;;;5057665;28;38240;-76
2022/08/27 06:58:19;;;;;;;7.28;2.40;;;16.90;99.90;;;;;;5042331;28;36124;-76
2022/08/27 07:00:45;;;;;;;5.82;2.33;;;16.90;99.90;;;;;;5066872;28;38587;-76
2022/08/27 07:03:11;;;;;;;5.70;1.67;;;17.00;99.90;;;;;;5074584;28;39141;-77
2022/08/27 07:05:39;;;;;;;5.95;1.77;;;17.10;99.90;;;;;;5073712;28;39010;-77
2022/08/27 07:08:06;;;;;;;5.15;2.05;;;17.20;99.90;;;;;;5044234;28;38805;-79
2022/08/27 07:10:33;;;;;;;4.25;1.83;;;17.40;99.90;;;;;;5070531;28;39638;-75
2022/08/27 07:13:00;;;;;;;5.32;2.03;;;17.50;99.90;;;;;;5076011;27;38718;-78
2022/08/27 07:15:26;;;;;;;5.80;1.80;;;17.60;99.90;;;;;;5061376;28;39214;-75
2022/08/27 07:17:53;;;;;;;5.15;1.83;;;17.70;99.90;;;;;;5076608;28;36769;-76
2022/08/27 07:20:20;;;;;;;3.05;1.90;;;17.80;99.90;;;;;;5073261;28;39808;-76
2022/08/27 07:22:47;;;;;;;4.57;1.85;;;17.80;99.90;;;;;;5077663;28;38546;-75
2022/08/27 07:25:19;;;;;;;4.40;1.88;;;17.90;99.90;;;;;;5056515;28;38102;-76
2022/08/27 07:27:48;;;;;;;;;;;17.90;99.90;;;;;;5072399;27;38997;-75
2022/08/27 07:30:16;;;;;;;4.68;2.30;;;18.00;99.90;;;;;;5072536;28;40539;-75
2022/08/27 07:32:44;;;;;;;4.82;2.00;;;18.00;99.90;;;;;;5082600;28;39404;-76
2022/08/27 07:35:11;;;;;;;5.20;2.45;;;18.10;99.90;;;;;;5080461;28;38313;-76
2022/08/27 07:37:39;;;;;;;4.90;2.25;;;18.10;99.90;;;;;;5047865;28;38649;-75
2022/08/27 07:40:11;;;;;;;5.50;2.55;;;18.10;99.90;;;;;;5059313;28;39366;-75
2022/08/27 07:45:22;;;;;;;3.63;2.35;;;18.20;99.90;;;;;;5072133;28;39731;-76
2022/08/27 07:47:49;;;;;;;4.85;2.45;;;18.30;99.90;;;;;;5055643;28;37161;-76
2022/08/27 07:50:15;;;;;;;6.55;2.50;;;18.30;99.90;;;;;;5076087;28;38958;-76
2022/08/27 07:52:42;;;;;;;6.55;2.45;;;18.40;99.90;;;;;;5058191;28;38652;-76
2022/08/27 07:55:13;;;;;;;8.55;2.63;;;18.50;99.90;;;;;;5062231;28;37809;-76
2022/08/27 07:57:40;;;;;;;2.78;2.28;;;18.60;99.90;;;;;;5059939;28;37152;-75
2022/08/27 08:00:09;;;;;;;4.15;2.40;;;18.70;99.90;;;;;;5056262;28;39238;-75
2022/08/27 08:02:36;;;;;;;6.82;2.83;;;18.90;99.90;;;;;;5057557;28;39355;-75
2022/08/27 08:05:04;;;;;;;3.60;1.80;;;19.00;99.90;;;;;;5039887;28;39094;-76
2022/08/27 08:07:32;;;;;;;4.40;2.33;;;19.00;99.90;;;;;;5054037;28;47201;-75
2022/08/27 08:09:59;;;;;;;4.88;2.78;;;19.00;99.90;;;;;;5056679;28;40750;-75
2022/08/27 08:12:25;;;;;;;6.97;3.00;;;19.00;99.90;;;;;;5055770;27;39676;-75
2022/08/27 08:14:56;;;;;;;7.20;2.55;;;19.10;99.90;;;;;;5076609;28;38233;-75
2022/08/27 08:17:24;;;;;;;6.82;3.03;;;19.10;99.90;;;;;;5076570;27;36012;-75
2022/08/27 08:19:52;;;;;;;4.95;2.55;;;19.10;99.90;;;;;;5077595;28;38679;-75
2022/08/27 08:22:19;;;;;;;7.20;3.10;;;19.20;99.90;;;;;;5055142;28;40050;-75
2022/08/27 08:24:45;;;;;;;4.63;2.67;;;19.20;99.90;;;;;;5053308;28;38422;-74
2022/08/27 08:27:11;;;;;;;5.05;2.05;;;19.30;99.90;;;;;;5065556;27;36947;-75
2022/08/27 08:29:37;;;;;;;2.88;1.92;;;19.30;99.90;;;;;;5046216;28;39193;-75
2022/08/27 08:32:05;;;;;;;6.00;2.50;;;19.50;99.90;;;;;;5057567;28;38863;-76
2022/08/27 08:34:32;;;;;;;4.63;2.38;;;19.60;99.90;;;;;;5064592;28;37656;-75
2022/08/27 08:36:58;;;;;;;5.05;2.38;;;19.70;99.90;;;;;;5044028;28;37615;-76
2022/08/27 08:39:24;;;;;;;4.53;2.47;;;19.90;99.90;;;;;;5048573;28;40843;-75
2022/08/27 08:41:59;;;;;;;4.30;2.50;;;20.10;99.90;;;;;;5071014;28;40032;-75
2022/08/27 08:44:47;;;;;;;4.78;2.50;;;20.20;99.90;;;;;;5054346;28;37999;-76
2022/08/27 08:47:28;;;;;;;4.68;2.35;;;20.20;99.90;;;;;;5059541;28;36470;-75
2022/08/27 08:50:13;;;;;;;3.97;2.17;;;20.40;99.90;;;;;;5033930;28;39215;-75
2022/08/27 08:52:51;;;;;;;6.80;2.20;;;20.50;99.90;;;;;;5054911;28;47013;-75
2022/08/27 08:55:30;;;;;;;4.07;1.98;;;20.50;99.90;;;;;;5076648;28;38714;-74
2022/08/27 08:58:27;;;;;;;4.60;2.08;;;20.50;99.90;;;;;;5058050;28;37414;-75
2022/08/27 09:00:59;;;;;;;14.60;2.67;;;20.40;99.90;;;;;;5077857;28;48801;-75
2022/08/27 09:03:27;;;;;;;4.25;1.90;;;20.50;99.90;;;;;;5055853;28;39060;-75
2022/08/27 09:06:01;;;;;;;4.22;1.85;;;20.40;99.90;;;;;;5078166;28;39372;-75
2022/08/27 09:08:33;;;;;;;6.25;2.10;;;20.30;99.90;;;;;;5077211;28;40508;-75
2022/08/27 09:11:08;;;;;;;;;;;20.40;99.90;;;;;;5081885;28;38990;-75
2022/08/27 09:13:40;;;;;;;4.70;1.95;;;20.50;99.90;;;;;;5080328;28;48028;-75
2022/08/27 09:16:06;;;;;;;3.97;2.00;;;20.60;99.90;;;;;;5073131;28;38989;-75
2022/08/27 09:18:38;;;;;;;4.15;1.85;;;20.50;99.90;;;;;;5081102;27;36994;-75
2022/08/27 09:21:30;;;;;;;6.13;2.17;;;20.50;99.90;;;;;;5063624;28;39513;-75
2022/08/27 09:23:56;;;;;;;5.60;2.00;;;20.50;99.90;;;;;;5079795;27;38451;-75
2022/08/27 09:26:25;;;;;;;3.30;1.90;;;20.60;99.90;;;;;;5076283;28;37741;-75
2022/08/27 09:29:15;;;;;;;6.38;1.83;;;20.80;99.90;;;;;;5056470;28;37637;-75
2022/08/27 09:31:52;;;;;;;4.38;1.92;;;21.10;99.90;;;;;;5073109;28;46687;-74
2022/08/27 09:34:19;;;;;;;4.88;2.22;;;21.30;99.90;;;;;;5050460;28;38745;-75
2022/08/27 09:36:58;;;;;;;4.45;1.95;;;21.50;99.90;;;;;;5058378;28;40064;-75
2022/08/27 09:39:32;;;;;;;6.72;2.00;;;21.70;99.90;;;;;;5064672;28;38652;-75
2022/08/27 09:41:58;;;;;;;3.10;1.88;;;21.90;99.90;;;;;;5079461;27;38709;-75
2022/08/27 09:44:24;;;;;;;3.70;1.90;;;22.20;99.90;;;;;;5059123;27;39435;-74
2022/08/27 09:47:01;;;;;;;3.58;1.70;;;22.40;99.90;;;;;;5067416;28;38004;-78
2022/08/27 09:49:27;;;;;;;2.88;1.67;;;22.40;99.90;;;;;;5058524;28;48445;-76
2022/08/27 09:51:55;;;;;;;3.60;1.58;;;22.50;99.90;;;;;;5075622;28;41098;-76
2022/08/27 09:54:29;;;;;;;7.45;1.58;;;22.30;99.90;;;;;;5072613;27;38317;-75
2022/08/27 09:56:56;;;;;;;3.30;1.80;;;22.20;99.90;;;;;;5080517;27;37870;-76
2022/08/27 09:59:26;;;;;;;3.85;1.52;;;22.10;99.90;;;;;;5080022;28;37416;-76
2022/08/27 10:02:01;;;;;;;2.70;1.63;;;22.10;99.90;;;;;;5076527;28;38805;-76
2022/08/27 10:04:46;;;;;;;3.50;1.10;;;21.90;99.90;;;;;;5074313;28;48779;-76
2022/08/27 10:07:34;;;;;;;4.55;1.60;;;21.90;99.90;;;;;;5078003;28;38351;-76
2022/08/27 10:10:18;;;;;;;6.05;1.42;;;22.10;99.90;;;;;;5064537;28;37749;-77
2022/08/27 10:12:49;;;;;;;2.33;1.58;;;22.20;99.90;;;;;;5070654;28;48332;-76
2022/08/27 10:15:16;;;;;;;4.90;1.43;;;22.20;99.90;;;;;;5072435;27;39380;-78
2022/08/27 10:18:06;;;;;;;5.03;1.30;;;22.20;99.90;;;;;;5060242;28;38398;-78
2022/08/27 10:20:59;;;;;;;3.70;1.10;;;22.40;99.90;;;;;;5079493;27;48708;-78
2022/08/27 10:23:37;;;;;;;2.45;1.10;;;22.40;99.90;;;;;;5039245;28;40165;-78
2022/08/27 10:26:23;;;;;;;4.88;1.55;;;22.30;99.90;;;;;;5058926;28;38580;-77
2022/08/27 10:28:59;;;;;;;5.30;1.33;;;22.30;99.90;;;;;;5080374;28;38114;-77
2022/08/27 10:31:33;;;;;;;3.03;1.13;;;22.40;99.90;;;;;;5039729;28;37505;-76
2022/08/27 10:34:11;;;;;;;4.53;1.35;;;22.80;99.90;;;;;;5039903;28;39753;-77
2022/08/27 10:37:14;;;;;;;2.08;1.05;;;23.20;99.90;;;;;;5049368;28;47640;-77
2022/08/27 10:39:52;;;;;;;3.70;1.25;;;23.50;99.90;;;;;;5059411;28;49148;-77
2022/08/27 10:42:41;;;;;;;7.03;1.42;;;23.40;99.90;;;;;;5057808;28;36807;-77
2022/08/27 10:45:07;;;;;;;6.00;1.27;;;23.40;99.90;;;;;;5040367;28;40451;-76
2022/08/27 10:48:24;;;;;;;5.10;1.08;;;23.80;99.90;;;;;;5052161;28;39135;-76
2022/08/27 10:50:54;;;;;;;6.05;1.30;;;24.50;99.90;;;;;;5036708;28;47503;-76
2022/08/27 10:53:40;;;;;;;2.95;1.08;;;24.80;99.90;;;;;;5078452;27;37081;-76
2022/08/27 10:56:20;;;;;;;4.93;1.52;;;24.60;99.90;;;;;;5075930;28;40372;-77
2022/08/27 10:59:01;;;;;;;7.20;1.58;;;24.10;99.90;;;;;;5075646;28;39696;-77
2022/08/27 11:01:36;;;;;;;4.97;1.40;;;24.10;99.90;;;;;;5074700;28;47737;-77
2022/08/27 11:04:08;;;;;;;4.28;1.40;;;23.90;99.90;;;;;;5059848;28;38803;-76
2022/08/27 11:06:45;;;;;;;2.75;1.30;;;23.90;99.90;;;;;;5071178;28;38632;-77
2022/08/27 11:09:45;;;;;;;4.32;0.93;;;23.80;99.90;;;;;;5079237;28;39498;-77
2022/08/27 11:12:17;;;;;;;2.53;1.02;;;23.80;99.90;;;;;;5055942;28;39249;-77
2022/08/27 11:14:55;;;;;;;;;;;23.80;99.90;;;;;;5058736;28;37259;-77
2022/08/27 11:17:29;;;;;;;2.65;1.02;;;23.80;99.90;;;;;;5080687;28;40007;-76
2022/08/27 11:20:09;;;;;;;6.47;1.38;;;24.00;99.90;;;;;;5057740;28;38737;-76
2022/08/27 11:22:38;;;;;;;3.03;1.10;;;24.00;99.90;;;;;;5074669;28;48351;-76
2022/08/27 11:25:31;;;;;;;4.75;1.67;;;23.90;99.90;;;;;;5060095;28;37716;-77
2022/08/27 11:27:59;;;;;;;4.75;1.30;;;23.80;99.90;;;;;;5034721;28;47152;-78
2022/08/27 11:30:40;;;;;;;2.80;1.20;;;23.80;99.90;;;;;;5082070;28;37332;-79
2022/08/27 11:33:29;;;;;;;6.03;1.20;;;23.80;99.90;;;;;;5061381;28;38644;-77
2022/08/27 11:36:20;;;;;;;4.07;0.90;;;23.90;99.90;;;;;;5079876;28;38484;-78
2022/08/27 11:39:14;;;;;;;5.05;1.35;;;24.20;99.90;;;;;;5081457;28;47029;-78
2022/08/27 11:41:51;;;;;;;5.05;2.28;;;24.60;99.90;;;;;;5081217;28;48645;-78
2022/08/27 11:44:23;;;;;;;5.53;1.90;;;24.40;99.90;;;;;;5063880;28;39634;-77
2022/08/27 11:46:56;;;;;;;3.08;1.10;;;24.20;99.90;;;;;;5059894;28;37783;-76
2022/08/27 11:49:28;;;;;;;6.32;1.27;;;24.20;99.90;;;;;;5087099;27;40230;-78
2022/08/27 11:52:03;;;;;;;3.65;1.35;;;24.10;99.90;;;;;;5067243;28;38163;-78
2022/08/27 11:54:49;;;;;;;2.58;0.90;;;24.10;99.90;;;;;;5082348;28;48621;-77
2022/08/27 11:57:36;;;;;;;4.43;1.23;;;24.20;99.90;;;;;;5071437;27;36954;-77
2022/08/27 12:00:29;;;;;;;4.13;1.42;;;24.10;99.90;;;;;;5068600;28;37652;-77
2022/08/27 12:03:00;;;;;;;2.67;1.17;;;23.90;99.90;;;;;;5081939;27;50374;-77
2022/08/27 12:05:43;;;;;;;2.85;1.02;;;23.80;99.90;;;;;;5079950;28;49363;-78
2022/08/27 12:08:17;;;;;;;4.25;1.13;;;23.70;99.90;;;;;;5083062;28;37534;-79
2022/08/27 12:11:02;;;;;;;3.05;1.05;;;23.60;99.90;;;;;;5065599;28;40519;-78
2022/08/27 12:13:37;;;;;;;2.90;0.98;;;23.50;99.90;;;;;;5086019;27;48530;-79
2022/08/27 12:16:43;;;;;;;6.30;1.55;;;23.30;99.90;;;;;;5065328;28;37867;-78
2022/08/27 12:19:40;;;;;;;4.32;1.25;;;23.30;99.90;;;;;;5081993;28;37386;-78
2022/08/27 12:23:38;;;;;;;2.92;1.00;;;23.40;99.90;;;;;;5087300;27;38711;-79
2022/08/27 12:25:21;;;;;;;2.95;1.10;;;23.40;99.90;;;;;;5086781;27;38079;-77
2022/08/27 12:28:01;;;;;;;3.75;1.25;;;23.50;99.90;;;;;;5082925;27;38068;-78
2022/08/27 12:30:40;;;;;;;4.35;1.10;;;23.40;99.90;;;;;;5069816;28;46915;-78
2022/08/27 12:33:18;;;;;;;3.38;0.98;;;23.20;99.90;;;;;;5082950;28;38974;-77
2022/08/27 12:35:47;;;;;;;4.45;1.27;;;23.10;99.90;;;;;;5082208;28;38466;-78
2022/08/27 12:38:52;;;;;;;5.00;1.10;;;23.00;99.90;;;;;;5082386;27;39422;-78
2022/08/27 12:41:36;;;;;;;8.73;1.65;;;22.80;99.90;;;;;;5051330;28;37107;-78
2022/08/27 12:44:05;;;;;;;6.32;1.33;;;22.30;99.90;;;;;;5062067;28;39610;-78
2022/08/27 12:46:31;;;;;;;4.88;1.10;;;22.20;99.90;;;;;;5064918;28;40299;-78
2022/08/27 12:49:03;;;;;;;2.22;1.02;;;22.10;99.90;;;;;;5063662;28;38663;-78
2022/08/27 12:51:38;;;;;;;7.00;1.08;;;22.10;99.90;;;;;;5081727;28;49137;-78
2022/08/27 12:54:25;;;;;;;4.90;1.50;;;21.80;99.90;;;;;;5076601;27;38698;-78
2022/08/27 12:57:30;;;;;;;2.33;1.10;;;21.80;99.90;;;;;;5081175;28;38043;-78
2022/08/27 13:00:13;;;;;;;4.22;1.33;;;21.80;99.90;;;;;;5058839;28;47204;-78
2022/08/27 13:03:11;;;;;;;5.03;1.55;;;21.80;99.90;;;;;;5079797;28;49725;-78
2022/08/27 13:05:49;;;;;;;6.18;1.15;;;22.10;99.90;;;;;;5046676;28;47296;-79
2022/08/27 13:08:18;;;;;;;4.00;1.55;;;22.30;99.90;;;;;;5062485;28;38889;-78
2022/08/27 13:10:45;;;;;;;3.17;1.10;;;22.40;99.90;;;;;;5064889;28;37303;-79
2022/08/27 13:13:16;;;;;;;3.97;1.55;;;22.50;99.90;;;;;;5054069;28;38474;-80
2022/08/27 13:15:45;;;;;;;3.28;1.58;;;22.50;99.90;;;;;;5075975;28;38664;-77
2022/08/27 13:18:12;;;;;;;3.88;1.40;;;22.60;99.90;;;;;;5057482;28;38375;-79